Time;durP1;ratioP1;P1;durP2;ratioP2;P2;SDS_P1;SDS_P2;PMS_P1;PMS_P2;Temp;Humidity;BMP_temperature;BMP_pressure;BME280_temperature;BME280_humidity;BME280_pressure;Samples;Min_cycle;Max_cycle;Signal;HPM_P1;HPM_P2
2022/08/05 00:00:10;;;;;;;3.93;3.40;;;20.50;1.00;;;;;;5077304;28;20432;-51
2022/08/05 00:02:38;;;;;;;4.33;3.53;;;20.50;1.00;;;;;;5078262;28;20470;-53
2022/08/05 00:05:08;;;;;;;4.50;4.10;;;20.50;1.00;;;;;;5078368;28;20890;-54
2022/08/05 00:07:35;;;;;;;5.20;3.87;;;20.40;1.00;;;;;;5077810;28;20560;-56
2022/08/05 00:10:10;;;;;;;3.87;3.53;;;20.40;1.00;;;;;;5078056;28;20500;-52
2022/08/05 00:12:45;;;;;;;4.20;3.80;;;20.40;1.00;;;;;;5077907;28;20563;-56
2022/08/05 00:15:14;;;;;;;6.90;4.00;;;20.40;1.00;;;;;;5077776;28;20518;-57
2022/08/05 00:17:41;;;;;;;5.70;3.53;;;20.30;1.00;;;;;;5077779;28;20925;-57
2022/08/05 00:20:11;;;;;;;4.20;3.47;;;20.40;1.00;;;;;;5078090;28;20497;-56
2022/08/05 00:22:40;;;;;;;3.83;3.50;;;20.30;1.00;;;;;;5078051;28;20439;-56
2022/08/05 00:25:08;;;;;;;4.60;3.53;;;20.20;1.00;;;;;;5078128;28;20462;-56
2022/08/05 00:27:39;;;;;;;4.77;4.37;;;20.30;1.00;;;;;;5077362;28;20488;-54
2022/08/05 00:30:10;;;;;;;4.40;3.70;;;20.20;1.00;;;;;;5077036;28;20558;-56
2022/08/05 00:32:38;;;;;;;4.67;4.10;;;20.20;1.00;;;;;;5077943;28;20465;-56
2022/08/05 00:35:09;;;;;;;5.43;4.10;;;20.20;1.00;;;;;;5077532;28;20480;-57
2022/08/05 00:37:38;;;;;;;6.20;4.37;;;20.20;1.00;;;;;;5076977;28;20560;-57
2022/08/05 00:40:06;;;;;;;5.70;5.10;;;20.20;1.00;;;;;;5077628;28;20485;-56
2022/08/05 00:42:36;;;;;;;9.40;4.60;;;20.20;1.00;;;;;;5077771;28;20497;-57
2022/08/05 00:45:06;;;;;;;6.03;4.20;;;20.10;1.00;;;;;;5077230;28;20497;-56
2022/08/05 00:47:35;;;;;;;5.00;3.60;;;20.10;1.00;;;;;;5077055;28;20475;-57
2022/08/05 00:50:03;;;;;;;4.97;4.30;;;20.00;1.00;;;;;;5077368;28;20605;-56
2022/08/05 00:52:32;;;;;;;4.83;3.60;;;20.00;1.00;;;;;;5077432;28;20949;-55
2022/08/05 00:55:01;;;;;;;4.60;4.10;;;20.10;1.00;;;;;;5077331;28;20489;-54
2022/08/05 00:57:28;;;;;;;4.73;4.17;;;20.00;1.00;;;;;;5077326;28;20489;-52
2022/08/05 00:59:56;;;;;;;4.97;4.43;;;20.00;1.00;;;;;;5077167;28;20510;-57
2022/08/05 01:02:23;;;;;;;7.73;4.87;;;19.90;1.00;;;;;;5077275;28;20534;-57
2022/08/05 01:04:51;;;;;;;5.60;4.70;;;19.90;1.00;;;;;;5077225;28;20503;-57
2022/08/05 01:07:18;;;;;;;5.17;4.67;;;19.90;1.00;;;;;;5076754;28;20584;-57
2022/08/05 01:09:46;;;;;;;5.30;4.53;;;19.90;1.00;;;;;;5083519;28;20486;-57
2022/08/05 01:12:20;;;;;;;5.17;4.10;;;19.90;1.00;;;;;;5096218;28;20467;-57
2022/08/05 01:14:53;;;;;;;5.97;4.13;;;19.90;1.00;;;;;;5097488;28;20922;-57
2022/08/05 01:17:28;;;;;;;4.47;3.93;;;19.90;1.00;;;;;;5097189;28;20438;-57
2022/08/05 01:20:11;;;;;;;5.10;4.20;;;19.80;1.00;;;;;;5097430;28;20456;-57
2022/08/05 01:22:53;;;;;;;8.17;5.20;;;19.80;1.00;;;;;;5096624;28;20468;-57
2022/08/05 01:25:46;;;;;;;7.60;5.07;;;19.80;1.00;;;;;;5096780;28;20460;-57
2022/08/05 01:28:30;;;;;;;6.40;4.87;;;19.80;1.00;;;;;;5097243;28;20470;-57
2022/08/05 01:31:01;;;;;;;5.20;4.70;;;19.80;1.00;;;;;;5097251;28;20452;-57
2022/08/05 01:33:35;;;;;;;5.07;4.50;;;19.70;1.00;;;;;;5097446;28;20474;-57
2022/08/05 01:36:09;;;;;;;6.97;4.30;;;19.70;1.00;;;;;;5097221;28;20739;-57
2022/08/05 01:38:38;;;;;;;5.70;4.70;;;19.70;1.00;;;;;;5097732;28;20490;-57
2022/08/05 01:41:07;;;;;;;7.03;4.60;;;19.70;1.00;;;;;;5097234;28;20448;-57
2022/08/05 01:43:37;;;;;;;6.60;5.10;;;19.70;1.00;;;;;;5096760;28;20456;-58
2022/08/05 01:46:05;;;;;;;4.70;4.30;;;19.60;1.00;;;;;;5096900;28;20546;-57
2022/08/05 01:48:35;;;;;;;4.97;4.30;;;19.60;1.00;;;;;;5097103;28;20559;-57
2022/08/05 01:51:04;;;;;;;4.70;4.27;;;19.60;1.00;;;;;;5097418;28;20761;-57
2022/08/05 01:53:36;;;;;;;5.33;4.67;;;19.50;1.00;;;;;;5096896;28;20758;-57
2022/08/05 01:56:04;;;;;;;5.70;4.70;;;19.50;1.00;;;;;;5097208;28;20460;-57
2022/08/05 01:58:33;;;;;;;7.90;4.83;;;19.50;1.00;;;;;;5099793;28;20770;-56
2022/08/05 02:01:04;;;;;;;6.87;4.70;;;19.60;1.00;;;;;;5100558;28;20452;-56
2022/08/05 02:03:38;;;;;;;6.23;5.00;;;19.50;1.00;;;;;;5100624;28;20505;-54
2022/08/05 02:06:06;;;;;;;5.77;5.17;;;19.50;1.00;;;;;;5100821;28;20460;-57
2022/08/05 02:08:34;;;;;;;5.90;4.67;;;19.40;1.00;;;;;;5098548;28;20460;-57
2022/08/05 02:11:06;;;;;;;4.83;4.33;;;19.40;1.00;;;;;;5080218;28;20566;-57
2022/08/05 02:13:40;;;;;;;10.83;4.60;;;19.30;1.00;;;;;;5079576;28;20514;-57
2022/08/05 02:16:19;;;;;;;5.90;5.40;;;19.20;1.00;;;;;;5080072;28;20537;-57
2022/08/05 02:18:50;;;;;;;7.73;4.27;;;19.10;1.00;;;;;;5080034;28;20468;-54
2022/08/05 02:21:21;;;;;;;6.30;4.63;;;19.10;23.50;;;;;;5079676;28;20472;-55
2022/08/05 02:23:53;;;;;;;6.30;4.30;;;19.00;41.00;;;;;;5079827;28;20465;-57
2022/08/05 02:26:24;;;;;;;5.70;4.33;;;18.90;22.60;;;;;;5079676;28;20530;-57
2022/08/05 02:29:00;;;;;;;6.23;4.50;;;19.00;8.40;;;;;;5079836;28;20467;-57
2022/08/05 02:31:31;;;;;;;5.70;4.27;;;19.00;18.80;;;;;;5079574;28;20461;-58
2022/08/05 02:34:02;;;;;;;5.90;4.40;;;19.10;1.00;;;;;;5079967;28;20507;-58
2022/08/05 02:36:37;;;;;;;6.17;4.63;;;19.10;1.00;;;;;;5079916;28;20442;-58
2022/08/05 02:39:09;;;;;;;4.83;4.00;;;19.10;1.00;;;;;;5080005;28;20531;-58
2022/08/05 02:41:39;;;;;;;5.23;4.77;;;19.20;1.00;;;;;;5079903;28;20534;-58
2022/08/05 02:44:09;;;;;;;4.70;4.10;;;19.10;1.00;;;;;;5079440;28;20458;-57
2022/08/05 02:46:40;;;;;;;5.20;4.70;;;19.10;1.00;;;;;;5097151;28;20461;-56
2022/08/05 02:49:11;;;;;;;6.10;4.50;;;19.10;9.30;;;;;;5099984;28;20464;-58
2022/08/05 02:51:38;;;;;;;4.47;4.03;;;19.10;43.10;;;;;;5099787;28;20562;-58
2022/08/05 02:54:06;;;;;;;6.80;4.60;;;19.10;99.90;;;;;;5098733;28;21074;-58
2022/08/05 02:56:36;;;;;;;5.03;4.40;;;19.10;99.90;;;;;;5099839;28;20538;-57
2022/08/05 02:59:05;;;;;;;4.80;4.30;;;19.10;98.40;;;;;;5084054;28;20465;-58
2022/08/05 03:01:40;;;;;;;5.70;5.20;;;19.10;41.40;;;;;;5079116;28;20472;-58
2022/08/05 03:04:12;;;;;;;7.70;4.60;;;19.10;27.00;;;;;;5079247;28;20460;-58
2022/08/05 03:06:42;;;;;;;6.97;5.00;;;19.10;43.60;;;;;;5079298;28;20461;-58
2022/08/05 03:09:13;;;;;;;4.93;4.43;;;19.20;56.30;;;;;;5089154;28;20518;-58
2022/08/05 03:11:45;;;;;;;6.40;5.27;;;19.30;36.40;;;;;;5099241;28;20487;-58
2022/08/05 03:14:12;;;;;;;7.17;5.47;;;19.20;99.90;;;;;;5099397;28;20563;-56
2022/08/05 03:16:41;;;;;;;10.00;5.37;;;19.30;99.90;;;;;;5097547;28;20485;-58
2022/08/05 03:19:08;;;;;;;6.80;6.10;;;19.30;99.90;;;;;;5077954;28;20520;-48
2022/08/05 03:21:40;;;;;;;11.50;6.57;;;19.20;99.90;;;;;;5078432;28;20523;-51
2022/08/05 03:24:11;;;;;;;7.77;5.87;;;19.30;1.00;;;;;;5078881;28;20435;-53
2022/08/05 03:26:38;;;;;;;7.07;6.07;;;19.30;1.00;;;;;;5078857;28;20454;-46
2022/08/05 03:29:06;;;;;;;6.97;6.27;;;19.20;1.00;;;;;;5078898;28;20865;-46
2022/08/05 03:31:34;;;;;;;7.70;6.20;;;19.20;21.40;;;;;;5077755;28;20520;-48
2022/08/05 03:34:03;;;;;;;7.33;6.60;;;19.20;99.90;;;;;;5078335;28;20432;-46
2022/08/05 03:36:31;;;;;;;7.13;6.37;;;19.10;99.90;;;;;;5078168;28;20461;-48
2022/08/05 03:38:59;;;;;;;8.43;6.27;;;19.00;1.00;;;;;;5078783;28;20463;-55
2022/08/05 03:41:26;;;;;;;6.73;6.03;;;18.90;1.00;;;;;;5077978;28;20458;-52
2022/08/05 03:43:53;;;;;;;10.50;6.23;;;18.90;46.70;;;;;;5078534;28;20559;-58
2022/08/05 03:46:20;;;;;;;6.90;6.20;;;18.80;99.90;;;;;;5077911;28;20465;-58
2022/08/05 03:48:48;;;;;;;6.97;6.27;;;18.80;99.90;;;;;;5077638;28;20458;-58
2022/08/05 03:51:22;;;;;;;13.33;6.37;;;18.90;99.90;;;;;;5077853;28;20671;-57
2022/08/05 03:53:54;;;;;;;9.53;7.67;;;18.80;99.90;;;;;;5078755;28;20743;-58
2022/08/05 03:56:29;;;;;;;12.47;7.67;;;18.80;99.90;;;;;;5078012;28;20464;-59
2022/08/05 03:59:00;;;;;;;8.70;6.80;;;18.80;99.90;;;;;;5077057;28;20457;-59
2022/08/05 04:01:31;;;;;;;9.60;6.70;;;18.80;99.90;;;;;;5077948;28;20940;-59
2022/08/05 04:03:59;;;;;;;7.20;6.50;;;18.80;99.90;;;;;;5078070;28;20527;-59
2022/08/05 04:06:34;;;;;;;8.37;6.40;;;18.70;93.80;;;;;;5078287;28;20515;-60
2022/08/05 04:09:04;;;;;;;7.77;6.97;;;18.60;99.90;;;;;;5078435;28;20762;-60
2022/08/05 04:11:32;;;;;;;7.13;6.40;;;18.70;99.90;;;;;;5077805;28;20489;-60
2022/08/05 04:14:00;;;;;;;10.57;6.13;;;18.70;99.90;;;;;;5076993;28;20807;-60
2022/08/05 04:16:28;;;;;;;8.43;7.00;;;18.70;99.90;;;;;;5076829;28;20839;-60
2022/08/05 04:18:55;;;;;;;7.30;6.50;;;18.70;99.90;;;;;;5077523;28;20467;-60
2022/08/05 04:21:28;;;;;;;8.40;7.10;;;18.70;99.90;;;;;;5077617;28;20560;-60
2022/08/05 04:23:57;;;;;;;7.40;6.70;;;18.80;99.90;;;;;;5077191;28;20750;-60
2022/08/05 04:26:25;;;;;;;7.57;6.73;;;18.80;99.90;;;;;;5077591;28;20508;-60
2022/08/05 04:28:53;;;;;;;6.87;6.17;;;18.70;99.90;;;;;;5077643;28;20493;-60
2022/08/05 04:31:21;;;;;;;6.33;5.73;;;18.70;99.90;;;;;;5078112;28;20493;-59
2022/08/05 04:33:48;;;;;;;8.27;6.90;;;18.70;99.90;;;;;;5077792;28;20508;-60
2022/08/05 04:36:16;;;;;;;6.83;6.23;;;18.80;99.90;;;;;;5077905;28;20870;-60
2022/08/05 04:38:45;;;;;;;8.37;6.00;;;18.90;99.90;;;;;;5077687;28;20476;-60
2022/08/05 04:41:12;;;;;;;8.50;6.70;;;19.00;99.90;;;;;;5077299;28;20470;-60
2022/08/05 04:43:40;;;;;;;7.60;6.80;;;19.00;99.90;;;;;;5077345;28;20563;-60
2022/08/05 04:46:07;;;;;;;7.33;6.60;;;19.00;99.90;;;;;;5077766;28;20461;-57
2022/08/05 04:48:34;;;;;;;6.63;6.03;;;19.00;99.90;;;;;;5077754;28;20461;-59
2022/08/05 04:51:01;;;;;;;7.23;6.00;;;19.00;99.90;;;;;;5077401;28;20925;-60
2022/08/05 04:53:31;;;;;;;7.57;6.87;;;19.00;99.90;;;;;;5077363;28;20553;-60
2022/08/05 04:56:00;;;;;;;8.13;7.23;;;18.90;99.90;;;;;;5077128;28;20964;-60
2022/08/05 04:58:30;;;;;;;8.73;6.70;;;18.90;99.90;;;;;;5076446;28;20507;-59
2022/08/05 05:01:01;;;;;;;11.03;6.70;;;18.80;99.90;;;;;;5077115;28;20461;-60
2022/08/05 05:03:31;;;;;;;9.20;6.60;;;18.80;99.90;;;;;;5076671;28;20560;-60
2022/08/05 05:05:58;;;;;;;8.67;7.33;;;18.90;99.90;;;;;;5077257;28;20538;-60
2022/08/05 05:08:26;;;;;;;8.93;7.90;;;18.80;99.90;;;;;;5077319;28;20471;-59
2022/08/05 05:10:54;;;;;;;10.37;9.37;;;18.60;99.90;;;;;;5076919;28;20519;-58
2022/08/05 05:13:23;;;;;;;10.20;9.17;;;18.60;99.90;;;;;;5076837;28;20465;-59
2022/08/05 05:15:54;;;;;;;13.83;12.43;;;18.50;99.90;;;;;;5077211;28;20508;-59
2022/08/05 05:18:21;;;;;;;13.37;12.17;;;18.30;99.90;;;;;;5076240;28;20579;-59
2022/08/05 05:20:49;;;;;;;14.53;13.17;;;18.40;99.90;;;;;;5076453;28;20457;-60
2022/08/05 05:23:16;;;;;;;14.93;13.57;;;18.40;99.90;;;;;;5077175;28;20461;-57
2022/08/05 05:25:45;;;;;;;16.60;15.00;;;18.40;99.90;;;;;;5076332;28;20891;-60
2022/08/05 05:28:15;;;;;;;14.53;13.33;;;18.30;99.90;;;;;;5075904;28;20522;-59
2022/08/05 05:30:44;;;;;;;14.20;13.00;;;18.50;99.90;;;;;;5078357;28;20489;-60
2022/08/05 05:33:14;;;;;;;15.00;13.63;;;18.60;99.90;;;;;;5080633;28;20467;-60
2022/08/05 05:35:42;;;;;;;12.80;11.53;;;18.70;99.90;;;;;;5080316;28;20461;-62
2022/08/05 05:38:12;;;;;;;14.23;12.87;;;18.70;99.90;;;;;;5080215;28;20817;-62
2022/08/05 05:40:39;;;;;;;13.03;11.80;;;18.50;99.90;;;;;;5081331;28;20564;-62
2022/08/05 05:43:09;;;;;;;15.53;11.20;;;18.50;99.90;;;;;;5081283;28;20461;-62
2022/08/05 05:45:37;;;;;;;12.53;11.23;;;18.60;99.90;;;;;;5080810;28;20755;-62
2022/08/05 05:48:07;;;;;;;14.00;12.67;;;18.50;99.90;;;;;;5080122;28;20472;-62
2022/08/05 05:50:35;;;;;;;13.90;12.70;;;18.50;99.90;;;;;;5081133;28;20489;-62
2022/08/05 05:53:06;;;;;;;13.90;12.50;;;18.30;99.90;;;;;;5080794;28;20461;-62
2022/08/05 05:55:34;;;;;;;14.53;12.37;;;18.30;99.90;;;;;;5080566;28;20511;-62
2022/08/05 05:58:01;;;;;;;15.23;13.90;;;18.40;99.90;;;;;;5080806;28;20465;-62
2022/08/05 06:00:34;;;;;;;13.53;12.23;;;18.40;99.90;;;;;;5080539;28;20579;-62
2022/08/05 06:03:02;;;;;;;14.10;12.60;;;18.40;99.90;;;;;;5080720;28;20792;-62
2022/08/05 06:05:31;;;;;;;16.10;14.40;;;18.30;99.90;;;;;;5080104;28;20476;-62
2022/08/05 06:07:58;;;;;;;15.00;13.43;;;18.40;99.90;;;;;;5080057;28;20489;-61
2022/08/05 06:10:25;;;;;;;16.50;13.80;;;18.70;99.90;;;;;;5080328;28;20492;-62
2022/08/05 06:12:52;;;;;;;15.67;14.27;;;18.70;99.90;;;;;;5094018;28;20483;-61
2022/08/05 06:15:20;;;;;;;16.37;13.00;;;18.70;99.90;;;;;;5100352;28;20510;-61
2022/08/05 06:17:48;;;;;;;14.17;12.73;;;18.80;99.90;;;;;;5101021;28;20490;-61
2022/08/05 06:20:15;;;;;;;14.37;13.13;;;18.90;99.90;;;;;;5100788;28;20482;-62
2022/08/05 06:22:43;;;;;;;15.40;13.80;;;19.10;99.90;;;;;;5100596;28;20492;-61
2022/08/05 06:25:12;;;;;;;16.33;14.60;;;19.20;99.90;;;;;;5100236;28;20460;-61
2022/08/05 06:27:40;;;;;;;14.90;13.60;;;19.30;99.90;;;;;;5090449;28;20471;-61
2022/08/05 06:30:14;;;;;;;15.17;13.77;;;19.50;99.90;;;;;;5100584;28;20460;-61
2022/08/05 06:32:46;;;;;;;13.13;11.90;;;19.60;99.90;;;;;;5100744;28;20867;-61
2022/08/05 06:35:13;;;;;;;13.50;12.30;;;19.80;99.90;;;;;;5097783;28;20492;-61
2022/08/05 06:37:44;;;;;;;13.30;11.90;;;19.90;1.00;;;;;;5098341;28;20442;-60
2022/08/05 06:40:13;;;;;;;14.00;12.70;;;19.70;99.90;;;;;;5100079;28;20500;-61
2022/08/05 06:42:40;;;;;;;13.33;12.13;;;19.70;5.30;;;;;;5099651;28;20496;-61
2022/08/05 06:45:08;;;;;;;12.53;11.33;;;19.40;1.00;;;;;;5100403;28;20467;-61
2022/08/05 06:47:38;;;;;;;12.03;10.83;;;19.50;99.90;;;;;;5099459;28;20471;-61
2022/08/05 06:50:06;;;;;;;13.17;11.77;;;19.40;1.00;;;;;;5098972;28;20559;-61
2022/08/05 06:52:33;;;;;;;13.20;11.90;;;19.10;99.90;;;;;;5099956;28;20516;-61
2022/08/05 06:55:01;;;;;;;13.63;12.33;;;18.90;22.90;;;;;;5099256;28;20463;-61
2022/08/05 06:57:30;;;;;;;15.07;13.73;;;18.80;99.90;;;;;;5099613;28;20460;-61
2022/08/05 06:59:58;;;;;;;14.80;13.53;;;18.70;99.90;;;;;;5098978;28;20534;-62
2022/08/05 07:02:25;;;;;;;17.03;15.37;;;18.70;99.90;;;;;;5084380;28;20439;-61
2022/08/05 07:04:52;;;;;;;16.07;14.60;;;18.70;99.90;;;;;;5078317;28;20460;-62
2022/08/05 07:07:19;;;;;;;17.40;15.80;;;18.60;99.90;;;;;;5077631;28;20923;-62
2022/08/05 07:09:49;;;;;;;19.43;16.20;;;18.40;99.90;;;;;;5078668;28;20437;-62
2022/08/05 07:17:53;;;;;;;18.57;16.77;;;18.30;99.90;;;;;;5078987;28;20419;-62
2022/08/05 07:20:20;;;;;;;20.07;18.00;;;18.30;99.90;;;;;;5079203;28;20939;-62
2022/08/05 07:22:47;;;;;;;24.73;18.77;;;18.30;99.90;;;;;;5079652;28;20536;-62
2022/08/05 07:25:19;;;;;;;21.90;19.60;;;18.20;99.90;;;;;;5078668;28;20511;-62
2022/08/05 07:27:46;;;;;;;20.73;18.87;;;18.20;99.90;;;;;;5079148;28;20461;-62
2022/08/05 07:30:15;;;;;;;22.40;20.10;;;18.10;99.90;;;;;;5079375;28;20857;-62
2022/08/05 07:32:43;;;;;;;24.10;18.73;;;18.20;99.90;;;;;;5079548;28;20527;-62
2022/08/05 07:35:12;;;;;;;20.93;18.90;;;18.10;99.90;;;;;;5079127;28;20560;-62
2022/08/05 07:37:40;;;;;;;21.10;19.00;;;18.00;99.90;;;;;;5078957;28;20449;-62
2022/08/05 07:40:09;;;;;;;21.00;18.90;;;18.10;99.90;;;;;;5079686;28;20768;-62
2022/08/05 07:42:37;;;;;;;20.90;18.73;;;18.10;99.90;;;;;;5080119;28;20536;-62
2022/08/05 07:45:07;;;;;;;19.40;17.50;;;18.10;99.90;;;;;;5079794;28;20861;-62
2022/08/05 07:47:36;;;;;;;20.77;18.77;;;18.20;99.90;;;;;;5079679;28;20864;-62
2022/08/05 07:50:04;;;;;;;19.70;17.63;;;18.10;99.90;;;;;;5079397;28;20493;-62
2022/08/05 07:52:31;;;;;;;17.23;15.53;;;18.30;99.90;;;;;;5078714;28;20510;-62
2022/08/05 07:54:59;;;;;;;14.80;13.30;;;18.10;99.90;;;;;;5077927;28;20572;-62
2022/08/05 07:57:26;;;;;;;14.00;12.70;;;18.00;99.90;;;;;;5077401;28;20781;-62
2022/08/05 07:59:53;;;;;;;13.57;11.97;;;18.00;99.90;;;;;;5077546;28;20453;-62
2022/08/05 08:02:28;;;;;;;11.63;10.43;;;18.00;99.90;;;;;;5077392;28;20490;-61
2022/08/05 08:04:57;;;;;;;11.73;10.33;;;18.00;99.90;;;;;;5078307;28;20461;-60
2022/08/05 08:07:26;;;;;;;11.63;10.53;;;18.10;99.90;;;;;;5078088;28;20465;-62
2022/08/05 08:09:53;;;;;;;10.97;9.97;;;18.00;99.90;;;;;;5078020;28;20459;-62
2022/08/05 08:12:20;;;;;;;12.23;11.13;;;18.00;99.90;;;;;;5078148;28;20493;-62
2022/08/05 08:14:48;;;;;;;11.40;10.30;;;18.10;99.90;;;;;;5078082;28;20465;-62
2022/08/05 08:17:16;;;;;;;9.63;8.70;;;18.20;99.90;;;;;;5077914;28;20511;-62
2022/08/05 08:19:48;;;;;;;8.80;8.00;;;18.20;99.90;;;;;;5076805;28;20428;-62
2022/08/05 08:22:16;;;;;;;9.47;8.60;;;17.90;99.90;;;;;;5077156;28;20768;-61
2022/08/05 08:24:47;;;;;;;10.13;9.10;;;18.00;99.90;;;;;;5077136;28;20947;-61
2022/08/05 08:27:15;;;;;;;10.60;9.70;;;17.90;99.90;;;;;;5077226;28;20485;-60
2022/08/05 08:29:46;;;;;;;10.83;9.93;;;17.70;99.90;;;;;;5077923;28;20515;-60
2022/08/05 08:32:13;;;;;;;10.10;9.20;;;17.70;99.90;;;;;;5077633;28;20593;-61
2022/08/05 08:34:42;;;;;;;10.00;9.07;;;17.70;99.90;;;;;;5077444;28;20879;-61
2022/08/05 08:37:10;;;;;;;10.50;9.30;;;17.60;99.90;;;;;;5076756;28;20456;-61
2022/08/05 08:39:39;;;;;;;11.17;10.17;;;17.60;99.90;;;;;;5077352;28;20934;-61
2022/08/05 08:42:13;;;;;;;11.30;10.30;;;17.60;99.90;;;;;;5076827;28;20552;-61
2022/08/05 08:44:42;;;;;;;10.30;9.40;;;17.50;99.90;;;;;;5077231;28;20892;-60
2022/08/05 08:47:10;;;;;;;11.90;10.90;;;17.20;99.90;;;;;;5077147;28;20556;-60
2022/08/05 08:49:41;;;;;;;11.00;10.00;;;17.20;99.90;;;;;;5077298;28;20886;-61
2022/08/05 08:52:13;;;;;;;11.20;10.20;;;17.10;99.90;;;;;;5076526;28;20542;-60
2022/08/05 08:54:43;;;;;;;11.43;10.33;;;17.20;99.90;;;;;;5077423;28;20577;-60
2022/08/05 08:57:12;;;;;;;11.40;10.30;;;17.30;99.90;;;;;;5075516;28;20527;-61
2022/08/05 08:59:40;;;;;;;10.77;9.77;;;17.20;99.90;;;;;;5076459;28;20462;-61
2022/08/05 09:02:12;;;;;;;9.90;8.97;;;17.10;99.90;;;;;;5076915;28;20549;-59
2022/08/05 09:04:41;;;;;;;10.00;9.10;;;17.30;99.90;;;;;;5076909;28;20522;-61
2022/08/05 09:07:10;;;;;;;11.07;8.07;;;17.30;99.90;;;;;;5076889;28;20787;-60
2022/08/05 09:09:37;;;;;;;11.90;8.80;;;17.30;99.90;;;;;;5076900;28;20512;-60
2022/08/05 09:12:12;;;;;;;11.00;9.50;;;17.30;99.90;;;;;;5076341;28;20463;-61
2022/08/05 09:14:43;;;;;;;17.57;9.47;;;17.40;99.90;;;;;;5077459;28;20556;-61
2022/08/05 09:17:13;;;;;;;10.70;8.40;;;17.40;99.90;;;;;;5076787;28;20439;-61
2022/08/05 09:19:40;;;;;;;9.80;8.80;;;17.40;99.90;;;;;;5076992;28;20466;-61
2022/08/05 09:22:08;;;;;;;9.60;8.70;;;17.20;99.90;;;;;;5076471;28;20473;-61
2022/08/05 09:24:39;;;;;;;9.27;8.40;;;17.20;99.90;;;;;;5076625;28;20462;-61
2022/08/05 09:27:31;;;;;;;10.10;7.63;;;17.20;99.90;;;;;;5076904;28;20470;-61
2022/08/05 09:30:01;;;;;;;7.50;6.80;;;17.20;99.90;;;;;;5076945;28;20464;-61
2022/08/05 09:32:39;;;;;;;9.57;7.53;;;17.20;99.90;;;;;;5077582;28;20535;-61
2022/08/05 09:35:17;;;;;;;7.70;6.40;;;17.30;99.90;;;;;;5076815;28;20526;-61
2022/08/05 09:37:50;;;;;;;7.80;7.07;;;17.30;99.90;;;;;;5076305;28;20430;-60
2022/08/05 09:40:33;;;;;;;9.87;6.53;;;17.30;99.90;;;;;;5074678;28;20488;-61
2022/08/05 09:43:09;;;;;;;9.20;7.40;;;17.50;99.90;;;;;;5077197;28;20464;-61
2022/08/05 09:45:38;;;;;;;7.93;7.23;;;17.60;99.90;;;;;;5076487;28;20969;-61
2022/08/05 09:48:25;;;;;;;12.93;7.53;;;17.50;99.90;;;;;;5076447;28;20428;-61
2022/08/05 09:50:55;;;;;;;9.70;6.37;;;17.40;99.90;;;;;;5066425;28;20957;-60
2022/08/05 09:53:24;;;;;;;11.33;8.00;;;17.50;99.90;;;;;;5075064;28;20499;-60
2022/08/05 09:55:56;;;;;;;8.70;7.90;;;17.70;99.90;;;;;;5075609;28;20817;-61
2022/08/05 09:58:25;;;;;;;7.57;6.70;;;17.50;99.90;;;;;;5075867;28;20461;-60
2022/08/05 10:00:55;;;;;;;8.33;6.70;;;17.70;99.90;;;;;;5075783;28;20467;-60
2022/08/05 10:03:28;;;;;;;6.33;5.73;;;17.60;1.00;;;;;;5076041;28;20492;-60
2022/08/05 10:06:08;;;;;;;8.83;6.80;;;17.70;1.00;;;;;;5076510;28;20461;-61
2022/08/05 10:08:38;;;;;;;6.30;5.70;;;17.70;34.20;;;;;;5077122;28;20471;-61
2022/08/05 10:11:16;;;;;;;7.90;5.00;;;17.90;99.90;;;;;;5076845;28;20462;-61
2022/08/05 10:13:47;;;;;;;6.30;5.03;;;17.90;21.50;;;;;;5075127;28;20756;-61
2022/08/05 10:16:32;;;;;;;5.87;4.87;;;17.90;1.00;;;;;;5075524;28;20912;-61
2022/08/05 10:19:01;;;;;;;5.80;5.20;;;17.70;99.90;;;;;;5079476;28;20773;-61
2022/08/05 10:21:32;;;;;;;6.53;4.90;;;17.60;99.90;;;;;;5079495;28;20453;-61
2022/08/05 10:24:03;;;;;;;5.40;4.90;;;17.40;1.00;;;;;;5078441;28;20457;-61
2022/08/05 10:26:31;;;;;;;5.23;4.73;;;17.50;1.00;;;;;;5059607;28;20466;-61
2022/08/05 10:28:59;;;;;;;14.53;6.70;;;17.50;99.90;;;;;;5078541;28;20894;-62
2022/08/05 10:31:30;;;;;;;5.03;4.53;;;17.40;99.90;;;;;;5078108;28;20746;-62
2022/08/05 10:33:59;;;;;;;8.50;4.80;;;17.50;1.00;;;;;;5078491;28;20457;-61
2022/08/05 10:36:29;;;;;;;5.77;4.77;;;17.60;1.00;;;;;;5078710;28;20465;-61
2022/08/05 10:39:06;;;;;;;5.90;5.00;;;17.50;1.00;;;;;;5078344;28;20545;-61
2022/08/05 10:41:43;;;;;;;5.63;4.97;;;17.50;99.90;;;;;;5077026;28;20428;-61
2022/08/05 10:44:17;;;;;;;6.83;6.13;;;17.70;37.70;;;;;;5076643;28;20457;-61
2022/08/05 10:46:49;;;;;;;5.83;5.23;;;17.70;99.90;;;;;;5076016;28;20457;-61
2022/08/05 10:49:19;;;;;;;7.43;6.57;;;17.90;1.00;;;;;;5077739;28;20461;-60
2022/08/05 10:51:49;;;;;;;11.20;5.70;;;18.30;1.00;;;;;;5075869;28;20463;-60
2022/08/05 10:54:17;;;;;;;6.13;5.13;;;18.60;20.50;;;;;;5075170;28;20601;-61
2022/08/05 10:56:47;;;;;;;6.70;6.00;;;18.50;99.90;;;;;;5074104;28;20476;-61
2022/08/05 10:59:20;;;;;;;5.90;5.30;;;18.50;99.90;;;;;;5076176;28;20886;-61
2022/08/05 11:01:47;;;;;;;7.40;4.87;;;18.60;99.90;;;;;;5076395;28;20468;-61
2022/08/05 11:04:17;;;;;;;9.63;4.50;;;18.10;15.00;;;;;;5078998;28;20468;-61
2022/08/05 11:07:07;;;;;;;6.60;4.90;;;18.10;95.40;;;;;;5079179;28;20461;-61
2022/08/05 11:09:45;;;;;;;5.90;5.40;;;18.40;99.90;;;;;;5078125;28;20536;-61
2022/08/05 11:12:46;;;;;;;5.43;4.93;;;18.50;99.90;;;;;;5077837;28;20459;-61
2022/08/05 11:15:26;;;;;;;6.10;5.60;;;19.10;99.90;;;;;;5077399;28;20440;-61
2022/08/05 11:18:09;;;;;;;6.63;5.43;;;19.30;1.00;;;;;;5078491;28;20944;-62
2022/08/05 11:20:44;;;;;;;6.70;5.50;;;19.30;1.00;;;;;;5079362;28;20484;-62
2022/08/05 11:23:41;;;;;;;5.13;4.63;;;19.60;1.00;;;;;;5077964;28;20453;-62
2022/08/05 11:26:09;;;;;;;7.90;5.23;;;19.90;1.00;;;;;;5040329;28;20534;-62
2022/08/05 11:28:51;;;;;;;6.30;5.03;;;19.30;1.00;;;;;;5077627;28;20894;-61
2022/08/05 11:31:27;;;;;;;5.60;4.97;;;19.10;1.00;;;;;;5077357;28;20457;-61
2022/08/05 11:34:00;;;;;;;8.40;4.97;;;19.40;1.00;;;;;;5078477;28;20467;-61
2022/08/05 11:36:43;;;;;;;5.03;4.53;;;19.40;1.00;;;;;;5078470;28;20472;-62
2022/08/05 11:39:12;;;;;;;5.47;4.90;;;19.80;1.00;;;;;;5078323;28;20563;-62
2022/08/05 11:41:49;;;;;;;7.23;4.37;;;20.30;1.00;;;;;;5078141;28;20793;-63
2022/08/05 11:44:19;;;;;;;7.47;4.83;;;21.20;1.00;;;;;;5078621;28;20485;-63
2022/08/05 11:46:51;;;;;;;4.70;3.67;;;21.30;99.90;;;;;;5078543;28;20443;-64
2022/08/05 11:49:21;;;;;;;4.70;3.47;;;22.00;99.90;;;;;;5077718;28;20560;-64
2022/08/05 11:51:53;;;;;;;3.80;3.27;;;22.90;99.90;;;;;;5078170;28;20436;-63
2022/08/05 11:54:26;;;;;;;5.00;3.97;;;22.50;99.90;;;;;;5077747;28;20492;-63
2022/08/05 11:56:57;;;;;;;5.20;3.47;;;23.00;99.90;;;;;;5078833;28;20885;-62
2022/08/05 11:59:32;;;;;;;3.23;2.93;;;23.60;99.90;;;;;;5077150;28;20560;-63
2022/08/05 12:02:05;;;;;;;4.20;3.80;;;23.80;99.90;;;;;;5077377;28;20457;-61
2022/08/05 12:04:40;;;;;;;4.50;3.23;;;23.40;99.90;;;;;;5074250;28;20510;-61
2022/08/05 12:07:15;;;;;;;3.83;3.43;;;24.70;99.90;;;;;;5076916;28;20538;-61
2022/08/05 12:09:52;;;;;;;5.30;4.13;;;24.80;99.90;;;;;;5076412;28;20551;-61
2022/08/05 12:12:24;;;;;;;4.30;3.90;;;24.10;99.90;;;;;;5077313;28;20499;-62
2022/08/05 12:14:54;;;;;;;5.03;3.63;;;23.40;99.90;;;;;;5077831;28;20758;-60
2022/08/05 12:17:36;;;;;;;4.43;4.03;;;23.50;99.90;;;;;;5077478;28;20505;-59
2022/08/05 12:20:11;;;;;;;4.00;3.63;;;24.60;99.90;;;;;;5077827;28;20900;-60
2022/08/05 12:22:41;;;;;;;3.67;3.30;;;23.60;99.90;;;;;;5078156;28;20461;-59
2022/08/05 12:25:09;;;;;;;4.40;3.83;;;24.10;99.90;;;;;;5077551;28;20537;-58
2022/08/05 12:27:41;;;;;;;4.80;3.50;;;24.70;99.90;;;;;;5076399;28;20471;-59
2022/08/05 12:30:12;;;;;;;4.47;3.20;;;24.10;99.90;;;;;;5076319;28;20464;-59
2022/08/05 12:32:49;;;;;;;4.97;3.57;;;24.40;99.90;;;;;;5076897;28;20489;-59
2022/08/05 12:35:17;;;;;;;4.47;4.07;;;25.20;99.90;;;;;;5076379;28;20446;-59
2022/08/05 12:37:47;;;;;;;3.80;3.50;;;26.10;99.90;;;;;;5076511;28;21005;-59
2022/08/05 12:40:16;;;;;;;4.27;3.47;;;25.20;99.90;;;;;;5076898;28;20444;-57
2022/08/05 12:42:43;;;;;;;5.10;3.77;;;25.10;99.90;;;;;;5077131;28;20551;-59
2022/08/05 12:45:12;;;;;;;4.03;3.70;;;24.80;99.90;;;;;;5075357;28;20556;-59
2022/08/05 12:47:42;;;;;;;5.23;4.60;;;24.40;99.90;;;;;;5075229;28;20461;-59
2022/08/05 12:50:16;;;;;;;3.83;3.53;;;23.80;99.90;;;;;;5074563;28;20808;-60
2022/08/05 12:53:02;;;;;;;3.63;3.33;;;24.00;99.90;;;;;;5077026;28;20583;-59
2022/08/05 12:55:31;;;;;;;3.50;3.20;;;23.80;99.90;;;;;;5076395;28;20489;-59
2022/08/05 12:57:59;;;;;;;4.80;4.27;;;22.90;99.90;;;;;;5076929;28;20465;-58
2022/08/05 13:00:31;;;;;;;5.97;4.20;;;23.40;99.90;;;;;;5076924;28;20461;-59
2022/08/05 13:03:00;;;;;;;3.57;3.27;;;24.00;99.90;;;;;;5076604;28;20704;-59
2022/08/05 13:05:30;;;;;;;4.43;4.00;;;24.70;99.90;;;;;;5075797;28;20435;-60